TimePDT,TemperatureF,Dew PointF,Humidity,Sea Level PressureIn,VisibilityMPH,Wind Direction,Wind SpeedMPH,Gust SpeedMPH,PrecipitationIn,Events,Conditions,WindDirDegrees,DateUTC
12:53 AM,42.1,30.9,65,30.10,10.0,WSW,6.9,-,N/A,,Partly Cloudy,250,2013-05-14 07:53:00
1:53 AM,42.1,30.0,62,30.12,10.0,SW,4.6,-,N/A,,Clear,220,2013-05-14 08:53:00
2:53 AM,42.1,30.9,65,30.15,10.0,South,9.2,-,N/A,,Clear,180,2013-05-14 09:53:00
3:53 AM,41.0,30.9,67,30.15,10.0,South,9.2,-,N/A,,Partly Cloudy,180,2013-05-14 10:53:00
4:53 AM,39.9,32.0,73,30.14,10.0,South,9.2,-,N/A,,Scattered Clouds,180,2013-05-14 11:53:00
5:53 AM,41.0,32.0,70,30.14,10.0,SSW,8.1,-,N/A,,Mostly Cloudy,200,2013-05-14 12:53:00
6:53 AM,43.0,33.1,68,30.15,10.0,SW,10.4,-,N/A,,Mostly Cloudy,220,2013-05-14 13:53:00
7:53 AM,45.0,33.1,63,30.15,10.0,SW,8.1,-,N/A,,Mostly Cloudy,220,2013-05-14 14:53:00
8:53 AM,48.0,33.1,56,30.15,10.0,SSW,3.5,-,N/A,,Mostly Cloudy,210,2013-05-14 15:53:00
9:53 AM,51.1,30.9,46,30.14,10.0,SW,9.2,-,N/A,,Mostly Cloudy,230,2013-05-14 16:53:00
10:53 AM,52.0,28.9,41,30.15,10.0,SW,6.9,16.1,N/A,,Mostly Cloudy,230,2013-05-14 17:53:00
11:53 AM,54.0,30.0,40,30.14,10.0,WSW,6.9,-,N/A,,Mostly Cloudy,250,2013-05-14 18:53:00
12:53 PM,55.0,30.0,38,30.14,10.0,SSW,11.5,-,N/A,,Overcast,210,2013-05-14 19:53:00
1:53 PM,55.0,27.0,34,30.12,10.0,South,5.8,-,N/A,,Overcast,180,2013-05-14 20:53:00
2:53 PM,57.9,27.0,31,30.11,10.0,SW,8.1,-,N/A,,Mostly Cloudy,220,2013-05-14 21:53:00
3:53 PM,59.0,26.1,28,30.09,10.0,SW,6.9,-,N/A,,Mostly Cloudy,230,2013-05-14 22:53:00
4:53 PM,60.1,24.1,25,30.08,10.0,SW,6.9,-,N/A,,Mostly Cloudy,230,2013-05-14 23:53:00
5:53 PM,61.0,26.1,26,30.07,10.0,NNW,4.6,-,N/A,,Scattered Clouds,330,2013-05-15 00:53:00
6:53 PM,60.1,24.1,25,30.06,10.0,West,8.1,-,N/A,,Scattered Clouds,270,2013-05-15 01:53:00
7:53 PM,57.0,24.1,28,30.06,10.0,West,3.5,-,N/A,,Partly Cloudy,260,2013-05-15 02:53:00
8:53 PM,54.0,27.0,35,30.07,10.0,SSW,3.5,-,N/A,,Scattered Clouds,200,2013-05-15 03:53:00
9:53 PM,51.1,30.0,44,30.08,10.0,SW,3.5,-,N/A,,Partly Cloudy,230,2013-05-15 04:53:00
10:53 PM,50.0,28.9,44,30.08,10.0,SSW,5.8,-,N/A,,Partly Cloudy,210,2013-05-15 05:53:00
11:53 PM,48.0,28.0,46,30.08,10.0,Calm,Calm,-,N/A,,Partly Cloudy,0,2013-05-15 06:53:00